sensor_id;sensor_type;location;lat;lon;timestamp;temperature;humidity
37086;DHT22;23001;45.952;12.676;2023-03-31T00:02:18;11.70;99.90
37086;DHT22;23001;45.952;12.676;2023-03-31T00:04:46;11.60;99.90
37086;DHT22;23001;45.952;12.676;2023-03-31T00:07:17;11.60;99.90
37086;DHT22;23001;45.952;12.676;2023-03-31T00:09:54;11.60;99.90
37086;DHT22;23001;45.952;12.676;2023-03-31T00:12:22;11.60;99.90
37086;DHT22;23001;45.952;12.676;2023-03-31T00:15:09;11.60;99.90
37086;DHT22;23001;45.952;12.676;2023-03-31T00:17:37;11.60;99.90
37086;DHT22;23001;45.952;12.676;2023-03-31T00:20:03;11.60;99.90
37086;DHT22;23001;45.952;12.676;2023-03-31T00:22:30;11.60;99.90
37086;DHT22;23001;45.952;12.676;2023-03-31T00:24:55;11.60;99.90
37086;DHT22;23001;45.952;12.676;2023-03-31T00:27:21;11.60;99.90
37086;DHT22;23001;45.952;12.676;2023-03-31T00:29:47;11.60;99.90
37086;DHT22;23001;45.952;12.676;2023-03-31T00:32:23;11.60;99.90
37086;DHT22;23001;45.952;12.676;2023-03-31T00:34:49;11.60;99.90
37086;DHT22;23001;45.952;12.676;2023-03-31T00:37:17;11.60;99.90
37086;DHT22;23001;45.952;12.676;2023-03-31T00:39:43;11.60;99.90
37086;DHT22;23001;45.952;12.676;2023-03-31T00:42:09;11.60;99.90
37086;DHT22;23001;45.952;12.676;2023-03-31T00:47:21;11.60;99.90
37086;DHT22;23001;45.952;12.676;2023-03-31T00:49:48;11.60;99.90
37086;DHT22;23001;45.952;12.676;2023-03-31T00:52:16;11.50;99.90
37086;DHT22;23001;45.952;12.676;2023-03-31T00:54:52;11.50;99.90
37086;DHT22;23001;45.952;12.676;2023-03-31T00:57:22;11.60;99.90
37086;DHT22;23001;45.952;12.676;2023-03-31T01:02:49;11.60;99.90
37086;DHT22;23001;45.952;12.676;2023-03-31T01:05:33;11.50;99.90
37086;DHT22;23001;45.952;12.676;2023-03-31T01:08:00;11.50;99.90
37086;DHT22;23001;45.952;12.676;2023-03-31T01:10:31;11.60;99.90
37086;DHT22;23001;45.952;12.676;2023-03-31T01:12:57;11.60;99.90
37086;DHT22;23001;45.952;12.676;2023-03-31T01:15:32;11.60;99.90
37086;DHT22;23001;45.952;12.676;2023-03-31T01:17:58;11.50;99.90
37086;DHT22;23001;45.952;12.676;2023-03-31T01:34:59;11.50;99.90
37086;DHT22;23001;45.952;12.676;2023-03-31T01:50:40;11.50;99.90
37086;DHT22;23001;45.952;12.676;2023-03-31T01:53:20;11.50;99.90
37086;DHT22;23001;45.952;12.676;2023-03-31T01:55:50;11.50;99.90
37086;DHT22;23001;45.952;12.676;2023-03-31T01:58:20;11.50;99.90
37086;DHT22;23001;45.952;12.676;2023-03-31T02:03:45;11.50;99.90
37086;DHT22;23001;45.952;12.676;2023-03-31T02:06:17;11.50;99.90
37086;DHT22;23001;45.952;12.676;2023-03-31T02:09:51;11.50;99.90
37086;DHT22;23001;45.952;12.676;2023-03-31T02:12:09;11.50;99.90
37086;DHT22;23001;45.952;12.676;2023-03-31T02:14:36;11.50;99.90
37086;DHT22;23001;45.952;12.676;2023-03-31T02:17:03;11.40;99.90
37086;DHT22;23001;45.952;12.676;2023-03-31T02:19:32;11.40;99.90
37086;DHT22;23001;45.952;12.676;2023-03-31T02:21:58;11.50;99.90
37086;DHT22;23001;45.952;12.676;2023-03-31T02:24:28;11.40;99.90
37086;DHT22;23001;45.952;12.676;2023-03-31T02:27:03;11.50;99.90
37086;DHT22;23001;45.952;12.676;2023-03-31T02:29:31;11.50;99.90
37086;DHT22;23001;45.952;12.676;2023-03-31T02:34:52;11.50;99.90
37086;DHT22;23001;45.952;12.676;2023-03-31T02:37:18;11.50;99.90
37086;DHT22;23001;45.952;12.676;2023-03-31T02:39:44;11.40;99.90
37086;DHT22;23001;45.952;12.676;2023-03-31T02:42:11;11.50;99.90
37086;DHT22;23001;45.952;12.676;2023-03-31T02:44:37;11.40;99.90
37086;DHT22;23001;45.952;12.676;2023-03-31T02:47:04;11.50;99.90
37086;DHT22;23001;45.952;12.676;2023-03-31T02:49:34;11.40;99.90
37086;DHT22;23001;45.952;12.676;2023-03-31T02:52:14;11.40;99.90
37086;DHT22;23001;45.952;12.676;2023-03-31T03:10:29;11.40;99.90
37086;DHT22;23001;45.952;12.676;2023-03-31T03:13:02;11.40;99.90
37086;DHT22;23001;45.952;12.676;2023-03-31T03:15:32;11.40;99.90
37086;DHT22;23001;45.952;12.676;2023-03-31T03:18:02;11.30;99.90
37086;DHT22;23001;45.952;12.676;2023-03-31T03:20:31;11.30;99.90
37086;DHT22;23001;45.952;12.676;2023-03-31T03:23:00;11.40;99.90
37086;DHT22;23001;45.952;12.676;2023-03-31T03:25:26;11.40;99.90
37086;DHT22;23001;45.952;12.676;2023-03-31T03:27:51;11.40;99.90
37086;DHT22;23001;45.952;12.676;2023-03-31T03:30:19;11.30;99.90
37086;DHT22;23001;45.952;12.676;2023-03-31T03:32:48;11.30;99.90
37086;DHT22;23001;45.952;12.676;2023-03-31T03:35:23;11.30;99.90
37086;DHT22;23001;45.952;12.676;2023-03-31T03:37:49;11.30;99.90
37086;DHT22;23001;45.952;12.676;2023-03-31T03:40:15;11.30;99.90
37086;DHT22;23001;45.952;12.676;2023-03-31T03:42:40;11.30;99.90
37086;DHT22;23001;45.952;12.676;2023-03-31T03:45:06;11.30;99.90
37086;DHT22;23001;45.952;12.676;2023-03-31T03:47:32;11.30;99.90
37086;DHT22;23001;45.952;12.676;2023-03-31T03:49:58;11.30;99.90
37086;DHT22;23001;45.952;12.676;2023-03-31T03:52:23;11.30;99.90
37086;DHT22;23001;45.952;12.676;2023-03-31T03:54:49;11.30;99.90
37086;DHT22;23001;45.952;12.676;2023-03-31T03:57:17;11.30;99.90
37086;DHT22;23001;45.952;12.676;2023-03-31T03:59:43;11.30;99.90
37086;DHT22;23001;45.952;12.676;2023-03-31T04:02:08;11.30;99.90
37086;DHT22;23001;45.952;12.676;2023-03-31T04:04:34;11.30;99.90
37086;DHT22;23001;45.952;12.676;2023-03-31T04:07:00;11.30;99.90
37086;DHT22;23001;45.952;12.676;2023-03-31T04:09:25;11.30;99.90
37086;DHT22;23001;45.952;12.676;2023-03-31T04:11:51;11.30;99.90
37086;DHT22;23001;45.952;12.676;2023-03-31T04:14:16;11.30;99.90
37086;DHT22;23001;45.952;12.676;2023-03-31T04:16:42;11.30;99.90
37086;DHT22;23001;45.952;12.676;2023-03-31T04:19:11;11.30;99.90
37086;DHT22;23001;45.952;12.676;2023-03-31T04:21:39;11.30;99.90
37086;DHT22;23001;45.952;12.676;2023-03-31T04:24:10;11.30;99.90
37086;DHT22;23001;45.952;12.676;2023-03-31T04:26:40;11.30;99.90
37086;DHT22;23001;45.952;12.676;2023-03-31T04:29:12;11.30;99.90
37086;DHT22;23001;45.952;12.676;2023-03-31T04:31:38;11.30;99.90
37086;DHT22;23001;45.952;12.676;2023-03-31T04:34:07;11.30;99.90
37086;DHT22;23001;45.952;12.676;2023-03-31T04:36:38;11.30;99.90
37086;DHT22;23001;45.952;12.676;2023-03-31T04:39:07;11.30;99.90
37086;DHT22;23001;45.952;12.676;2023-03-31T04:41:35;11.30;99.90
37086;DHT22;23001;45.952;12.676;2023-03-31T04:44:01;11.30;99.90
37086;DHT22;23001;45.952;12.676;2023-03-31T04:46:33;11.30;99.90
37086;DHT22;23001;45.952;12.676;2023-03-31T04:49:02;11.30;99.90
37086;DHT22;23001;45.952;12.676;2023-03-31T04:51:33;11.30;99.90
37086;DHT22;23001;45.952;12.676;2023-03-31T04:54:01;11.30;99.90
37086;DHT22;23001;45.952;12.676;2023-03-31T04:56:27;11.30;99.90
37086;DHT22;23001;45.952;12.676;2023-03-31T04:58:52;11.30;99.90
37086;DHT22;23001;45.952;12.676;2023-03-31T05:01:21;11.30;99.90
37086;DHT22;23001;45.952;12.676;2023-03-31T05:03:46;11.30;99.90
37086;DHT22;23001;45.952;12.676;2023-03-31T05:06:17;11.30;99.90
37086;DHT22;23001;45.952;12.676;2023-03-31T05:08:43;11.30;99.90
37086;DHT22;23001;45.952;12.676;2023-03-31T05:11:09;11.30;99.90
37086;DHT22;23001;45.952;12.676;2023-03-31T05:13:40;11.40;99.90
37086;DHT22;23001;45.952;12.676;2023-03-31T05:22:16;11.40;99.90
37086;DHT22;23001;45.952;12.676;2023-03-31T05:27:51;11.40;99.90
37086;DHT22;23001;45.952;12.676;2023-03-31T05:30:16;11.40;99.90
37086;DHT22;23001;45.952;12.676;2023-03-31T05:32:42;11.40;99.90
37086;DHT22;23001;45.952;12.676;2023-03-31T05:35:11;11.50;99.90
37086;DHT22;23001;45.952;12.676;2023-03-31T05:37:39;11.40;99.90
37086;DHT22;23001;45.952;12.676;2023-03-31T05:43:05;11.40;99.90
37086;DHT22;23001;45.952;12.676;2023-03-31T05:45:54;11.50;99.90
37086;DHT22;23001;45.952;12.676;2023-03-31T05:48:37;11.50;99.90
37086;DHT22;23001;45.952;12.676;2023-03-31T05:51:02;11.40;99.90
37086;DHT22;23001;45.952;12.676;2023-03-31T05:56:51;11.40;99.90
37086;DHT22;23001;45.952;12.676;2023-03-31T06:02:34;11.40;99.90
37086;DHT22;23001;45.952;12.676;2023-03-31T06:05:00;11.40;99.90
37086;DHT22;23001;45.952;12.676;2023-03-31T06:07:28;11.50;99.90
37086;DHT22;23001;45.952;12.676;2023-03-31T06:10:20;11.50;99.90
37086;DHT22;23001;45.952;12.676;2023-03-31T06:16:37;11.60;99.90
37086;DHT22;23001;45.952;12.676;2023-03-31T06:18:50;11.60;99.90
37086;DHT22;23001;45.952;12.676;2023-03-31T06:21:23;11.70;99.90
37086;DHT22;23001;45.952;12.676;2023-03-31T06:23:52;11.70;99.90
37086;DHT22;23001;45.952;12.676;2023-03-31T06:26:20;11.80;99.90
37086;DHT22;23001;45.952;12.676;2023-03-31T06:28:47;11.80;99.90
37086;DHT22;23001;45.952;12.676;2023-03-31T06:31:30;11.90;99.90
37086;DHT22;23001;45.952;12.676;2023-03-31T06:34:08;11.90;99.90
37086;DHT22;23001;45.952;12.676;2023-03-31T06:39:30;11.90;99.90
37086;DHT22;23001;45.952;12.676;2023-03-31T06:41:56;12.00;99.90
37086;DHT22;23001;45.952;12.676;2023-03-31T06:44:22;12.10;99.90
37086;DHT22;23001;45.952;12.676;2023-03-31T06:46:48;12.10;99.90
37086;DHT22;23001;45.952;12.676;2023-03-31T06:49:14;12.00;99.90
37086;DHT22;23001;45.952;12.676;2023-03-31T06:51:40;12.00;99.90
37086;DHT22;23001;45.952;12.676;2023-03-31T06:54:06;12.00;99.90
37086;DHT22;23001;45.952;12.676;2023-03-31T06:56:34;12.00;99.90
37086;DHT22;23001;45.952;12.676;2023-03-31T06:59:00;12.00;99.90
37086;DHT22;23001;45.952;12.676;2023-03-31T07:01:25;12.10;99.90
37086;DHT22;23001;45.952;12.676;2023-03-31T07:03:51;12.10;99.90
37086;DHT22;23001;45.952;12.676;2023-03-31T07:06:19;12.10;99.90
37086;DHT22;23001;45.952;12.676;2023-03-31T07:08:45;12.20;99.90
37086;DHT22;23001;45.952;12.676;2023-03-31T07:11:11;12.10;99.90
37086;DHT22;23001;45.952;12.676;2023-03-31T07:13:37;12.10;99.90
37086;DHT22;23001;45.952;12.676;2023-03-31T07:16:02;12.20;99.90
37086;DHT22;23001;45.952;12.676;2023-03-31T07:18:29;12.10;99.90
37086;DHT22;23001;45.952;12.676;2023-03-31T07:20:59;12.10;99.90
37086;DHT22;23001;45.952;12.676;2023-03-31T07:23:25;12.10;99.90
37086;DHT22;23001;45.952;12.676;2023-03-31T07:25:50;12.20;99.90
37086;DHT22;23001;45.952;12.676;2023-03-31T07:28:16;12.30;99.90
37086;DHT22;23001;45.952;12.676;2023-03-31T07:30:42;12.30;99.90
37086;DHT22;23001;45.952;12.676;2023-03-31T07:33:08;12.30;99.90
37086;DHT22;23001;45.952;12.676;2023-03-31T07:35:36;12.30;99.90
37086;DHT22;23001;45.952;12.676;2023-03-31T07:38:02;12.30;99.90
37086;DHT22;23001;45.952;12.676;2023-03-31T07:40:28;12.20;99.90
37086;DHT22;23001;45.952;12.676;2023-03-31T07:42:54;12.30;99.90
37086;DHT22;23001;45.952;12.676;2023-03-31T07:45:23;12.30;99.90
37086;DHT22;23001;45.952;12.676;2023-03-31T07:47:49;12.30;99.90
37086;DHT22;23001;45.952;12.676;2023-03-31T07:50:33;12.30;99.90
37086;DHT22;23001;45.952;12.676;2023-03-31T07:53:02;12.30;99.90
37086;DHT22;23001;45.952;12.676;2023-03-31T07:55:37;12.50;99.90
37086;DHT22;23001;45.952;12.676;2023-03-31T07:58:03;12.50;99.90
37086;DHT22;23001;45.952;12.676;2023-03-31T08:00:29;12.50;99.90
37086;DHT22;23001;45.952;12.676;2023-03-31T08:02:55;12.50;99.90
37086;DHT22;23001;45.952;12.676;2023-03-31T08:05:21;12.60;99.90
37086;DHT22;23001;45.952;12.676;2023-03-31T08:08:07;12.50;99.90
37086;DHT22;23001;45.952;12.676;2023-03-31T08:16:37;12.60;99.90
37086;DHT22;23001;45.952;12.676;2023-03-31T08:19:03;12.60;99.90
37086;DHT22;23001;45.952;12.676;2023-03-31T08:21:29;12.60;99.90
37086;DHT22;23001;45.952;12.676;2023-03-31T08:23:57;12.70;99.90
37086;DHT22;23001;45.952;12.676;2023-03-31T08:26:24;12.70;99.90
37086;DHT22;23001;45.952;12.676;2023-03-31T08:28:50;12.80;99.90
37086;DHT22;23001;45.952;12.676;2023-03-31T08:31:25;12.70;99.90
37086;DHT22;23001;45.952;12.676;2023-03-31T08:34:14;12.60;99.90
37086;DHT22;23001;45.952;12.676;2023-03-31T08:36:39;12.60;99.90
37086;DHT22;23001;45.952;12.676;2023-03-31T08:39:07;12.60;99.90
37086;DHT22;23001;45.952;12.676;2023-03-31T08:42:03;12.60;99.90
37086;DHT22;23001;45.952;12.676;2023-03-31T08:45:54;12.60;99.90
37086;DHT22;23001;45.952;12.676;2023-03-31T08:50:39;12.50;99.90
37086;DHT22;23001;45.952;12.676;2023-03-31T08:55:48;12.60;99.90
37086;DHT22;23001;45.952;12.676;2023-03-31T09:13:17;12.70;99.90
37086;DHT22;23001;45.952;12.676;2023-03-31T09:15:58;12.80;99.90
37086;DHT22;23001;45.952;12.676;2023-03-31T09:18:52;12.90;99.90
37086;DHT22;23001;45.952;12.676;2023-03-31T09:21:27;12.90;99.90
37086;DHT22;23001;45.952;12.676;2023-03-31T09:29:55;13.30;99.90
37086;DHT22;23001;45.952;12.676;2023-03-31T09:35:41;13.30;99.90
37086;DHT22;23001;45.952;12.676;2023-03-31T09:38:11;13.40;99.90
37086;DHT22;23001;45.952;12.676;2023-03-31T09:40:40;13.40;99.90
37086;DHT22;23001;45.952;12.676;2023-03-31T09:43:25;13.20;99.90
37086;DHT22;23001;45.952;12.676;2023-03-31T09:46:27;13.40;99.90
37086;DHT22;23001;45.952;12.676;2023-03-31T09:51:45;13.40;99.90
37086;DHT22;23001;45.952;12.676;2023-03-31T09:54:20;13.40;99.90
37086;DHT22;23001;45.952;12.676;2023-03-31T09:56:50;13.40;99.90
37086;DHT22;23001;45.952;12.676;2023-03-31T09:59:45;13.40;99.90
37086;DHT22;23001;45.952;12.676;2023-03-31T10:05:28;13.50;99.90
37086;DHT22;23001;45.952;12.676;2023-03-31T10:08:11;13.50;99.90
37086;DHT22;23001;45.952;12.676;2023-03-31T10:10:42;13.40;99.90
37086;DHT22;23001;45.952;12.676;2023-03-31T10:13:15;13.40;99.90
37086;DHT22;23001;45.952;12.676;2023-03-31T10:15:42;13.30;99.90
37086;DHT22;23001;45.952;12.676;2023-03-31T10:18:12;13.40;99.90
37086;DHT22;23001;45.952;12.676;2023-03-31T10:20:41;13.40;99.90
37086;DHT22;23001;45.952;12.676;2023-03-31T10:23:14;13.50;99.90
37086;DHT22;23001;45.952;12.676;2023-03-31T10:25:46;13.30;99.90
37086;DHT22;23001;45.952;12.676;2023-03-31T10:28:14;13.30;99.90
37086;DHT22;23001;45.952;12.676;2023-03-31T10:30:48;13.30;99.90
37086;DHT22;23001;45.952;12.676;2023-03-31T10:33:18;13.30;99.90
37086;DHT22;23001;45.952;12.676;2023-03-31T10:35:46;13.20;99.90
37086;DHT22;23001;45.952;12.676;2023-03-31T10:38:22;13.10;99.90
37086;DHT22;23001;45.952;12.676;2023-03-31T10:40:55;13.10;99.90
37086;DHT22;23001;45.952;12.676;2023-03-31T10:43:40;13.20;99.90
37086;DHT22;23001;45.952;12.676;2023-03-31T10:46:15;13.20;99.90
37086;DHT22;23001;45.952;12.676;2023-03-31T10:48:51;13.20;99.90
37086;DHT22;23001;45.952;12.676;2023-03-31T10:53:59;13.20;99.90
37086;DHT22;23001;45.952;12.676;2023-03-31T10:56:32;13.20;99.90
37086;DHT22;23001;45.952;12.676;2023-03-31T11:11:02;13.10;99.90
37086;DHT22;23001;45.952;12.676;2023-03-31T11:13:34;13.20;99.90
37086;DHT22;23001;45.952;12.676;2023-03-31T11:18:45;13.20;99.90
37086;DHT22;23001;45.952;12.676;2023-03-31T11:26:20;12.90;99.90
37086;DHT22;23001;45.952;12.676;2023-03-31T11:31:37;13.00;99.90
37086;DHT22;23001;45.952;12.676;2023-03-31T11:42:26;13.20;99.90
37086;DHT22;23001;45.952;12.676;2023-03-31T11:45:02;13.30;99.90
37086;DHT22;23001;45.952;12.676;2023-03-31T11:47:29;13.30;99.90
37086;DHT22;23001;45.952;12.676;2023-03-31T11:49:58;13.30;99.90
37086;DHT22;23001;45.952;12.676;2023-03-31T11:52:28;13.20;99.90
37086;DHT22;23001;45.952;12.676;2023-03-31T11:54:58;13.30;99.90
37086;DHT22;23001;45.952;12.676;2023-03-31T11:57:30;13.20;99.90
37086;DHT22;23001;45.952;12.676;2023-03-31T12:09:20;13.30;99.90
37086;DHT22;23001;45.952;12.676;2023-03-31T12:11:59;13.10;99.90
37086;DHT22;23001;45.952;12.676;2023-03-31T12:14:47;13.10;99.90
37086;DHT22;23001;45.952;12.676;2023-03-31T12:17:19;13.10;99.90
37086;DHT22;23001;45.952;12.676;2023-03-31T12:19:56;13.20;99.90
37086;DHT22;23001;45.952;12.676;2023-03-31T12:22:28;13.20;99.90
37086;DHT22;23001;45.952;12.676;2023-03-31T12:25:02;13.30;99.90
37086;DHT22;23001;45.952;12.676;2023-03-31T12:27:40;13.30;99.90
37086;DHT22;23001;45.952;12.676;2023-03-31T12:38:36;13.40;99.90
37086;DHT22;23001;45.952;12.676;2023-03-31T12:49:14;13.20;99.90
37086;DHT22;23001;45.952;12.676;2023-03-31T12:52:44;13.20;99.90
37086;DHT22;23001;45.952;12.676;2023-03-31T12:57:23;13.30;99.90
37086;DHT22;23001;45.952;12.676;2023-03-31T13:02:44;13.30;99.90
37086;DHT22;23001;45.952;12.676;2023-03-31T13:07:54;13.30;99.90
37086;DHT22;23001;45.952;12.676;2023-03-31T13:10:26;13.40;99.90
37086;DHT22;23001;45.952;12.676;2023-03-31T13:15:34;13.40;99.90
37086;DHT22;23001;45.952;12.676;2023-03-31T13:18:06;13.40;99.90
37086;DHT22;23001;45.952;12.676;2023-03-31T13:23:13;13.30;99.90
37086;DHT22;23001;45.952;12.676;2023-03-31T13:25:43;13.30;99.90
37086;DHT22;23001;45.952;12.676;2023-03-31T13:28:13;13.40;99.90
37086;DHT22;23001;45.952;12.676;2023-03-31T13:33:12;13.20;99.90
37086;DHT22;23001;45.952;12.676;2023-03-31T13:35:39;13.30;99.90
37086;DHT22;23001;45.952;12.676;2023-03-31T13:38:15;13.30;99.90
37086;DHT22;23001;45.952;12.676;2023-03-31T13:45:53;13.50;99.90
37086;DHT22;23001;45.952;12.676;2023-03-31T13:54:13;13.40;99.90
37086;DHT22;23001;45.952;12.676;2023-03-31T14:01:43;13.30;99.90
37086;DHT22;23001;45.952;12.676;2023-03-31T14:04:22;13.40;99.90
37086;DHT22;23001;45.952;12.676;2023-03-31T14:06:58;13.40;99.90
37086;DHT22;23001;45.952;12.676;2023-03-31T14:09:30;13.40;99.90
37086;DHT22;23001;45.952;12.676;2023-03-31T14:11:59;13.40;99.90
37086;DHT22;23001;45.952;12.676;2023-03-31T14:14:25;13.50;99.90
37086;DHT22;23001;45.952;12.676;2023-03-31T14:16:52;13.50;99.90
37086;DHT22;23001;45.952;12.676;2023-03-31T14:24:30;13.40;99.90
37086;DHT22;23001;45.952;12.676;2023-03-31T14:27:17;13.40;99.90
37086;DHT22;23001;45.952;12.676;2023-03-31T14:29:55;13.40;99.90
37086;DHT22;23001;45.952;12.676;2023-03-31T14:35:11;13.40;99.90
37086;DHT22;23001;45.952;12.676;2023-03-31T14:37:42;13.30;99.90
37086;DHT22;23001;45.952;12.676;2023-03-31T14:40:13;13.40;99.90
37086;DHT22;23001;45.952;12.676;2023-03-31T14:42:40;13.30;99.90
37086;DHT22;23001;45.952;12.676;2023-03-31T14:45:42;13.30;99.90
37086;DHT22;23001;45.952;12.676;2023-03-31T14:48:03;13.30;99.90
37086;DHT22;23001;45.952;12.676;2023-03-31T14:50:37;13.20;99.90
37086;DHT22;23001;45.952;12.676;2023-03-31T14:53:03;13.20;99.90
37086;DHT22;23001;45.952;12.676;2023-03-31T14:55:29;13.10;99.90
37086;DHT22;23001;45.952;12.676;2023-03-31T14:57:57;13.10;99.90
37086;DHT22;23001;45.952;12.676;2023-03-31T15:00:25;13.10;99.90
37086;DHT22;23001;45.952;12.676;2023-03-31T15:02:51;13.20;99.90
37086;DHT22;23001;45.952;12.676;2023-03-31T15:05:24;13.10;99.90
37086;DHT22;23001;45.952;12.676;2023-03-31T15:07:50;13.10;99.90
37086;DHT22;23001;45.952;12.676;2023-03-31T15:10:19;13.10;99.90
37086;DHT22;23001;45.952;12.676;2023-03-31T15:12:48;13.10;99.90
37086;DHT22;23001;45.952;12.676;2023-03-31T15:15:23;13.00;99.90
37086;DHT22;23001;45.952;12.676;2023-03-31T15:17:48;13.00;99.90
37086;DHT22;23001;45.952;12.676;2023-03-31T15:22:58;13.00;99.90
37086;DHT22;23001;45.952;12.676;2023-03-31T15:25:25;13.00;99.90
37086;DHT22;23001;45.952;12.676;2023-03-31T15:28:03;13.00;99.90
37086;DHT22;23001;45.952;12.676;2023-03-31T15:30:36;13.10;99.90
37086;DHT22;23001;45.952;12.676;2023-03-31T15:33:04;13.10;99.90
37086;DHT22;23001;45.952;12.676;2023-03-31T15:35:31;13.10;99.90
37086;DHT22;23001;45.952;12.676;2023-03-31T15:37:58;13.10;99.90
37086;DHT22;23001;45.952;12.676;2023-03-31T15:40:28;13.00;99.90
37086;DHT22;23001;45.952;12.676;2023-03-31T15:42:58;13.00;99.90
37086;DHT22;23001;45.952;12.676;2023-03-31T15:45:43;13.00;99.90
37086;DHT22;23001;45.952;12.676;2023-03-31T15:48:13;13.00;99.90
37086;DHT22;23001;45.952;12.676;2023-03-31T15:50:40;13.00;99.90
37086;DHT22;23001;45.952;12.676;2023-03-31T15:53:19;12.90;99.90
37086;DHT22;23001;45.952;12.676;2023-03-31T15:55:46;12.90;99.90
37086;DHT22;23001;45.952;12.676;2023-03-31T15:58:14;13.00;99.90
37086;DHT22;23001;45.952;12.676;2023-03-31T16:00:50;12.90;99.90
37086;DHT22;23001;45.952;12.676;2023-03-31T16:03:22;12.90;99.90
37086;DHT22;23001;45.952;12.676;2023-03-31T16:08:37;12.90;99.90
37086;DHT22;23001;45.952;12.676;2023-03-31T16:11:16;12.90;99.90
37086;DHT22;23001;45.952;12.676;2023-03-31T16:13:44;12.90;99.90
37086;DHT22;23001;45.952;12.676;2023-03-31T16:16:15;13.00;99.90
37086;DHT22;23001;45.952;12.676;2023-03-31T16:18:42;13.00;99.90
37086;DHT22;23001;45.952;12.676;2023-03-31T16:21:10;13.00;99.90
37086;DHT22;23001;45.952;12.676;2023-03-31T16:23:48;13.00;99.90
37086;DHT22;23001;45.952;12.676;2023-03-31T16:26:18;12.90;99.90
37086;DHT22;23001;45.952;12.676;2023-03-31T16:28:48;12.90;99.90
37086;DHT22;23001;45.952;12.676;2023-03-31T16:31:35;12.90;99.90
37086;DHT22;23001;45.952;12.676;2023-03-31T16:34:07;12.80;99.90
37086;DHT22;23001;45.952;12.676;2023-03-31T16:36:33;12.80;99.90
37086;DHT22;23001;45.952;12.676;2023-03-31T16:39:02;12.70;99.90
37086;DHT22;23001;45.952;12.676;2023-03-31T16:41:32;12.70;99.90
37086;DHT22;23001;45.952;12.676;2023-03-31T16:43:58;12.70;99.90
37086;DHT22;23001;45.952;12.676;2023-03-31T16:46:29;12.70;99.90
37086;DHT22;23001;45.952;12.676;2023-03-31T16:48:55;12.70;99.90
37086;DHT22;23001;45.952;12.676;2023-03-31T16:51:21;12.70;99.90
37086;DHT22;23001;45.952;12.676;2023-03-31T16:53:50;12.80;99.90
37086;DHT22;23001;45.952;12.676;2023-03-31T16:56:16;12.80;99.90
37086;DHT22;23001;45.952;12.676;2023-03-31T16:58:41;12.80;99.90
37086;DHT22;23001;45.952;12.676;2023-03-31T17:01:21;12.80;99.90
37086;DHT22;23001;45.952;12.676;2023-03-31T17:03:47;12.70;99.90
37086;DHT22;23001;45.952;12.676;2023-03-31T17:06:13;12.70;99.90
37086;DHT22;23001;45.952;12.676;2023-03-31T17:08:39;12.70;99.90
37086;DHT22;23001;45.952;12.676;2023-03-31T17:11:08;12.70;99.90
37086;DHT22;23001;45.952;12.676;2023-03-31T17:13:36;12.70;99.90
37086;DHT22;23001;45.952;12.676;2023-03-31T17:16:01;12.60;99.90
37086;DHT22;23001;45.952;12.676;2023-03-31T17:18:27;12.60;99.90
37086;DHT22;23001;45.952;12.676;2023-03-31T17:21:16;12.60;99.90
37086;DHT22;23001;45.952;12.676;2023-03-31T17:23:47;12.60;99.90
37086;DHT22;23001;45.952;12.676;2023-03-31T17:26:14;12.60;99.90
37086;DHT22;23001;45.952;12.676;2023-03-31T17:28:42;12.60;99.90
37086;DHT22;23001;45.952;12.676;2023-03-31T17:31:13;12.60;99.90
37086;DHT22;23001;45.952;12.676;2023-03-31T17:36:48;12.60;99.90
37086;DHT22;23001;45.952;12.676;2023-03-31T17:39:24;12.50;99.90
37086;DHT22;23001;45.952;12.676;2023-03-31T17:41:54;12.50;99.90
37086;DHT22;23001;45.952;12.676;2023-03-31T17:44:25;12.50;99.90
37086;DHT22;23001;45.952;12.676;2023-03-31T17:47:07;12.50;99.90
37086;DHT22;23001;45.952;12.676;2023-03-31T17:49:38;12.60;99.90
37086;DHT22;23001;45.952;12.676;2023-03-31T17:52:34;12.60;99.90
37086;DHT22;23001;45.952;12.676;2023-03-31T18:09:27;12.50;99.90
37086;DHT22;23001;45.952;12.676;2023-03-31T18:12:22;12.50;99.90
37086;DHT22;23001;45.952;12.676;2023-03-31T18:14:56;12.50;99.90
37086;DHT22;23001;45.952;12.676;2023-03-31T18:17:26;12.50;99.90
37086;DHT22;23001;45.952;12.676;2023-03-31T18:19:58;12.40;99.90
37086;DHT22;23001;45.952;12.676;2023-03-31T18:22:53;12.40;99.90
37086;DHT22;23001;45.952;12.676;2023-03-31T18:25:50;12.40;99.90
37086;DHT22;23001;45.952;12.676;2023-03-31T18:31:35;12.40;99.90
37086;DHT22;23001;45.952;12.676;2023-03-31T18:54:33;12.30;99.90
37086;DHT22;23001;45.952;12.676;2023-03-31T19:00:04;12.30;99.90
37086;DHT22;23001;45.952;12.676;2023-03-31T19:02:53;12.20;99.90
37086;DHT22;23001;45.952;12.676;2023-03-31T19:12:17;12.20;99.90
37086;DHT22;23001;45.952;12.676;2023-03-31T19:21:10;12.20;99.90
37086;DHT22;23001;45.952;12.676;2023-03-31T19:29:56;12.20;99.90
37086;DHT22;23001;45.952;12.676;2023-03-31T19:36:01;12.20;99.90
37086;DHT22;23001;45.952;12.676;2023-03-31T19:44:32;12.20;99.90
37086;DHT22;23001;45.952;12.676;2023-03-31T19:53:19;12.20;99.90
37086;DHT22;23001;45.952;12.676;2023-03-31T19:58:20;12.20;99.90
37086;DHT22;23001;45.952;12.676;2023-03-31T20:00:46;12.10;99.90
37086;DHT22;23001;45.952;12.676;2023-03-31T20:03:14;12.10;99.90
37086;DHT22;23001;45.952;12.676;2023-03-31T20:05:40;12.00;99.90
37086;DHT22;23001;45.952;12.676;2023-03-31T20:08:05;12.00;99.90
37086;DHT22;23001;45.952;12.676;2023-03-31T20:10:31;12.00;99.90
37086;DHT22;23001;45.952;12.676;2023-03-31T20:12:56;12.00;99.90
37086;DHT22;23001;45.952;12.676;2023-03-31T20:15:22;12.00;99.90
37086;DHT22;23001;45.952;12.676;2023-03-31T20:17:51;12.00;99.90
37086;DHT22;23001;45.952;12.676;2023-03-31T20:20:21;12.00;99.90
37086;DHT22;23001;45.952;12.676;2023-03-31T20:22:49;12.00;99.90
37086;DHT22;23001;45.952;12.676;2023-03-31T20:25:26;11.90;99.90
37086;DHT22;23001;45.952;12.676;2023-03-31T20:27:52;11.80;99.90
37086;DHT22;23001;45.952;12.676;2023-03-31T20:30:17;11.80;99.90
37086;DHT22;23001;45.952;12.676;2023-03-31T20:32:43;11.80;99.90
37086;DHT22;23001;45.952;12.676;2023-03-31T20:35:12;11.80;99.90
37086;DHT22;23001;45.952;12.676;2023-03-31T20:37:37;11.80;99.90
37086;DHT22;23001;45.952;12.676;2023-03-31T20:40:03;11.70;99.90
37086;DHT22;23001;45.952;12.676;2023-03-31T20:42:32;11.70;99.90
37086;DHT22;23001;45.952;12.676;2023-03-31T20:45:00;11.60;99.90
37086;DHT22;23001;45.952;12.676;2023-03-31T20:47:28;11.60;99.90